sensor_id;sensor_type;location;lat;lon;timestamp;temperature;humidity
12223;DHT22;6174;49.058;8.524;2023-06-10T06:02:48;20.80;90.60
12223;DHT22;6174;49.058;8.524;2023-06-10T06:05:16;21.00;90.90
12223;DHT22;6174;49.058;8.524;2023-06-10T06:07:43;21.10;90.30
12223;DHT22;6174;49.058;8.524;2023-06-10T06:10:09;21.10;90.40
12223;DHT22;6174;49.058;8.524;2023-06-10T06:12:36;21.00;89.50
12223;DHT22;6174;49.058;8.524;2023-06-10T06:15:04;21.00;91.00
12223;DHT22;6174;49.058;8.524;2023-06-10T06:17:30;21.10;91.50
12223;DHT22;6174;49.058;8.524;2023-06-10T06:19:58;21.10;90.80
12223;DHT22;6174;49.058;8.524;2023-06-10T06:22:25;21.10;90.10
12223;DHT22;6174;49.058;8.524;2023-06-10T06:24:52;21.10;90.40
12223;DHT22;6174;49.058;8.524;2023-06-10T06:27:18;21.10;90.40
12223;DHT22;6174;49.058;8.524;2023-06-10T06:29:46;21.10;90.70
12223;DHT22;6174;49.058;8.524;2023-06-10T06:32:13;21.10;90.60
12223;DHT22;6174;49.058;8.524;2023-06-10T06:34:39;21.10;90.50
12223;DHT22;6174;49.058;8.524;2023-06-10T06:37:07;21.30;90.90
12223;DHT22;6174;49.058;8.524;2023-06-10T06:39:34;21.20;90.70
12223;DHT22;6174;49.058;8.524;2023-06-10T06:42:01;21.20;90.80
12223;DHT22;6174;49.058;8.524;2023-06-10T06:44:28;21.40;91.60
12223;DHT22;6174;49.058;8.524;2023-06-10T06:46:54;21.50;90.80
12223;DHT22;6174;49.058;8.524;2023-06-10T06:49:21;21.60;91.30
12223;DHT22;6174;49.058;8.524;2023-06-10T06:51:48;21.70;90.80
12223;DHT22;6174;49.058;8.524;2023-06-10T06:54:16;21.90;90.50
12223;DHT22;6174;49.058;8.524;2023-06-10T06:56:43;21.90;90.00
12223;DHT22;6174;49.058;8.524;2023-06-10T06:59:09;22.00;88.80
12223;DHT22;6174;49.058;8.524;2023-06-10T07:01:39;22.10;89.30
12223;DHT22;6174;49.058;8.524;2023-06-10T07:04:06;22.20;90.00
12223;DHT22;6174;49.058;8.524;2023-06-10T07:06:32;22.30;89.30
12223;DHT22;6174;49.058;8.524;2023-06-10T07:08:59;22.50;90.20
12223;DHT22;6174;49.058;8.524;2023-06-10T07:11:27;22.60;90.30
12223;DHT22;6174;49.058;8.524;2023-06-10T07:13:54;22.60;88.50
12223;DHT22;6174;49.058;8.524;2023-06-10T07:16:21;22.80;89.00
12223;DHT22;6174;49.058;8.524;2023-06-10T07:18:47;23.00;88.50
12223;DHT22;6174;49.058;8.524;2023-06-10T07:21:14;23.00;87.50
12223;DHT22;6174;49.058;8.524;2023-06-10T07:23:41;23.20;86.40
12223;DHT22;6174;49.058;8.524;2023-06-10T07:26:09;23.50;86.90
12223;DHT22;6174;49.058;8.524;2023-06-10T07:28:38;23.60;85.00
12223;DHT22;6174;49.058;8.524;2023-06-10T07:31:04;23.60;84.50
12223;DHT22;6174;49.058;8.524;2023-06-10T07:33:31;23.90;84.40
12223;DHT22;6174;49.058;8.524;2023-06-10T07:35:58;24.30;83.60
12223;DHT22;6174;49.058;8.524;2023-06-10T07:38:25;24.50;81.90
12223;DHT22;6174;49.058;8.524;2023-06-10T07:40:51;24.80;82.10
12223;DHT22;6174;49.058;8.524;2023-06-10T07:43:18;25.20;82.50
12223;DHT22;6174;49.058;8.524;2023-06-10T07:45:46;25.40;80.20
12223;DHT22;6174;49.058;8.524;2023-06-10T07:48:13;25.40;78.10
12223;DHT22;6174;49.058;8.524;2023-06-10T07:50:40;25.40;78.90
12223;DHT22;6174;49.058;8.524;2023-06-10T07:53:07;25.50;77.60
12223;DHT22;6174;49.058;8.524;2023-06-10T07:55:33;25.50;78.20
12223;DHT22;6174;49.058;8.524;2023-06-10T07:58:00;25.60;77.20
12223;DHT22;6174;49.058;8.524;2023-06-10T08:00:27;25.80;76.70
12223;DHT22;6174;49.058;8.524;2023-06-10T08:02:55;26.10;77.20
12223;DHT22;6174;49.058;8.524;2023-06-10T08:05:22;26.40;78.80
12223;DHT22;6174;49.058;8.524;2023-06-10T08:07:48;26.40;76.30
12223;DHT22;6174;49.058;8.524;2023-06-10T08:10:15;26.20;75.20
12223;DHT22;6174;49.058;8.524;2023-06-10T08:12:42;26.20;75.90
12223;DHT22;6174;49.058;8.524;2023-06-10T08:15:09;26.00;74.50
12223;DHT22;6174;49.058;8.524;2023-06-10T08:17:37;25.90;76.80
12223;DHT22;6174;49.058;8.524;2023-06-10T08:20:06;25.60;76.30
12223;DHT22;6174;49.058;8.524;2023-06-10T08:22:33;25.40;78.30
12223;DHT22;6174;49.058;8.524;2023-06-10T08:25:00;25.20;77.60
12223;DHT22;6174;49.058;8.524;2023-06-10T08:27:27;25.10;80.00
12223;DHT22;6174;49.058;8.524;2023-06-10T08:29:53;24.90;80.30
12223;DHT22;6174;49.058;8.524;2023-06-10T08:32:20;24.70;79.80
12223;DHT22;6174;49.058;8.524;2023-06-10T08:34:47;24.60;81.90
12223;DHT22;6174;49.058;8.524;2023-06-10T08:37:15;24.60;81.20
12223;DHT22;6174;49.058;8.524;2023-06-10T08:39:41;24.70;81.70
12223;DHT22;6174;49.058;8.524;2023-06-10T08:42:21;24.40;80.40
12223;DHT22;6174;49.058;8.524;2023-06-10T08:44:50;24.50;82.20
12223;DHT22;6174;49.058;8.524;2023-06-10T08:47:19;24.40;81.20
12223;DHT22;6174;49.058;8.524;2023-06-10T08:49:48;24.40;81.40
12223;DHT22;6174;49.058;8.524;2023-06-10T08:52:19;24.50;83.70
12223;DHT22;6174;49.058;8.524;2023-06-10T08:54:52;24.50;82.80
12223;DHT22;6174;49.058;8.524;2023-06-10T08:57:21;24.60;80.00
12223;DHT22;6174;49.058;8.524;2023-06-10T08:59:49;24.70;82.40
12223;DHT22;6174;49.058;8.524;2023-06-10T09:02:16;24.80;82.50
12223;DHT22;6174;49.058;8.524;2023-06-10T09:04:46;24.70;80.10
12223;DHT22;6174;49.058;8.524;2023-06-10T09:07:16;24.80;80.00
12223;DHT22;6174;49.058;8.524;2023-06-10T09:09:43;24.80;81.00
12223;DHT22;6174;49.058;8.524;2023-06-10T09:12:11;24.90;80.00
12223;DHT22;6174;49.058;8.524;2023-06-10T09:14:38;24.90;80.20
12223;DHT22;6174;49.058;8.524;2023-06-10T09:17:05;24.90;81.30
12223;DHT22;6174;49.058;8.524;2023-06-10T09:19:32;25.00;81.70
12223;DHT22;6174;49.058;8.524;2023-06-10T09:22:00;25.00;77.70
12223;DHT22;6174;49.058;8.524;2023-06-10T09:24:28;25.10;80.00
12223;DHT22;6174;49.058;8.524;2023-06-10T09:27:02;25.10;80.00
12223;DHT22;6174;49.058;8.524;2023-06-10T09:29:29;25.20;78.10
12223;DHT22;6174;49.058;8.524;2023-06-10T09:31:56;25.20;78.40
12223;DHT22;6174;49.058;8.524;2023-06-10T09:34:25;25.20;79.70
12223;DHT22;6174;49.058;8.524;2023-06-10T09:36:53;25.30;78.00
12223;DHT22;6174;49.058;8.524;2023-06-10T09:39:21;25.30;77.80
12223;DHT22;6174;49.058;8.524;2023-06-10T09:41:49;25.30;79.20
12223;DHT22;6174;49.058;8.524;2023-06-10T09:44:17;25.40;76.40
12223;DHT22;6174;49.058;8.524;2023-06-10T09:46:45;25.40;77.40
12223;DHT22;6174;49.058;8.524;2023-06-10T09:49:12;25.50;77.50
12223;DHT22;6174;49.058;8.524;2023-06-10T09:51:49;25.60;79.20
12223;DHT22;6174;49.058;8.524;2023-06-10T09:54:16;25.70;79.40
12223;DHT22;6174;49.058;8.524;2023-06-10T09:56:52;25.70;77.50
12223;DHT22;6174;49.058;8.524;2023-06-10T09:59:30;25.80;79.50
12223;DHT22;6174;49.058;8.524;2023-06-10T10:01:58;25.80;73.50
12223;DHT22;6174;49.058;8.524;2023-06-10T10:04:26;25.80;75.00
12223;DHT22;6174;49.058;8.524;2023-06-10T10:06:54;25.90;77.70
12223;DHT22;6174;49.058;8.524;2023-06-10T10:09:20;26.00;75.40
12223;DHT22;6174;49.058;8.524;2023-06-10T10:11:47;26.00;76.20
12223;DHT22;6174;49.058;8.524;2023-06-10T10:14:16;26.10;77.70
12223;DHT22;6174;49.058;8.524;2023-06-10T10:16:45;26.10;75.70
12223;DHT22;6174;49.058;8.524;2023-06-10T10:19:18;26.10;75.80
12223;DHT22;6174;49.058;8.524;2023-06-10T10:21:52;26.10;73.30
12223;DHT22;6174;49.058;8.524;2023-06-10T10:24:21;26.10;75.60
12223;DHT22;6174;49.058;8.524;2023-06-10T10:26:50;26.20;77.10
12223;DHT22;6174;49.058;8.524;2023-06-10T10:29:23;26.20;74.70
12223;DHT22;6174;49.058;8.524;2023-06-10T10:31:51;26.20;73.40
12223;DHT22;6174;49.058;8.524;2023-06-10T10:34:23;26.30;75.50
12223;DHT22;6174;49.058;8.524;2023-06-10T10:36:51;26.30;72.30
12223;DHT22;6174;49.058;8.524;2023-06-10T10:39:18;26.40;75.60
12223;DHT22;6174;49.058;8.524;2023-06-10T10:41:46;26.40;73.40
12223;DHT22;6174;49.058;8.524;2023-06-10T10:44:13;26.50;71.10
12223;DHT22;6174;49.058;8.524;2023-06-10T10:46:48;26.50;70.60
12223;DHT22;6174;49.058;8.524;2023-06-10T10:49:16;26.40;68.90
12223;DHT22;6174;49.058;8.524;2023-06-10T10:51:56;26.40;71.70
12223;DHT22;6174;49.058;8.524;2023-06-10T10:54:30;26.40;71.60
12223;DHT22;6174;49.058;8.524;2023-06-10T10:57:14;26.40;70.60
12223;DHT22;6174;49.058;8.524;2023-06-10T10:59:52;26.50;69.10
12223;DHT22;6174;49.058;8.524;2023-06-10T11:02:34;26.50;71.40
12223;DHT22;6174;49.058;8.524;2023-06-10T11:05:05;26.50;70.00
12223;DHT22;6174;49.058;8.524;2023-06-10T11:07:33;26.50;70.90
12223;DHT22;6174;49.058;8.524;2023-06-10T11:10:06;26.50;68.90
12223;DHT22;6174;49.058;8.524;2023-06-10T11:12:51;26.60;69.70
12223;DHT22;6174;49.058;8.524;2023-06-10T11:15:19;26.60;68.10
12223;DHT22;6174;49.058;8.524;2023-06-10T11:18:10;26.60;71.90
12223;DHT22;6174;49.058;8.524;2023-06-10T11:20:57;26.70;72.50
12223;DHT22;6174;49.058;8.524;2023-06-10T11:23:35;26.70;67.80
12223;DHT22;6174;49.058;8.524;2023-06-10T11:26:18;26.80;69.80
12223;DHT22;6174;49.058;8.524;2023-06-10T11:29:08;26.80;68.20
12223;DHT22;6174;49.058;8.524;2023-06-10T11:31:41;26.90;69.10
12223;DHT22;6174;49.058;8.524;2023-06-10T11:34:10;26.90;67.80
12223;DHT22;6174;49.058;8.524;2023-06-10T11:36:39;26.90;67.40
12223;DHT22;6174;49.058;8.524;2023-06-10T11:39:11;27.00;69.00
12223;DHT22;6174;49.058;8.524;2023-06-10T11:41:39;27.00;69.40
12223;DHT22;6174;49.058;8.524;2023-06-10T11:44:08;27.10;68.70
12223;DHT22;6174;49.058;8.524;2023-06-10T11:46:35;27.20;66.90
12223;DHT22;6174;49.058;8.524;2023-06-10T11:49:03;27.20;67.70
12223;DHT22;6174;49.058;8.524;2023-06-10T11:51:33;27.20;65.80
12223;DHT22;6174;49.058;8.524;2023-06-10T11:54:00;27.20;64.20
12223;DHT22;6174;49.058;8.524;2023-06-10T11:56:29;27.20;68.20
12223;DHT22;6174;49.058;8.524;2023-06-10T11:58:57;27.20;68.80
12223;DHT22;6174;49.058;8.524;2023-06-10T12:01:26;27.20;66.50
12223;DHT22;6174;49.058;8.524;2023-06-10T12:04:00;27.20;66.00
12223;DHT22;6174;49.058;8.524;2023-06-10T12:06:27;27.30;65.40
12223;DHT22;6174;49.058;8.524;2023-06-10T12:08:56;27.30;68.60
12223;DHT22;6174;49.058;8.524;2023-06-10T12:11:23;27.40;64.20
12223;DHT22;6174;49.058;8.524;2023-06-10T12:13:50;27.50;68.20
12223;DHT22;6174;49.058;8.524;2023-06-10T12:16:17;27.50;66.70
12223;DHT22;6174;49.058;8.524;2023-06-10T12:18:45;27.50;63.60
12223;DHT22;6174;49.058;8.524;2023-06-10T12:21:17;27.50;65.00
12223;DHT22;6174;49.058;8.524;2023-06-10T12:24:03;27.50;69.00
12223;DHT22;6174;49.058;8.524;2023-06-10T12:26:38;27.70;68.10
12223;DHT22;6174;49.058;8.524;2023-06-10T12:29:18;27.70;65.30
12223;DHT22;6174;49.058;8.524;2023-06-10T12:31:56;27.60;62.20
12223;DHT22;6174;49.058;8.524;2023-06-10T12:34:31;27.60;61.40
12223;DHT22;6174;49.058;8.524;2023-06-10T12:36:58;27.70;63.60
12223;DHT22;6174;49.058;8.524;2023-06-10T12:39:27;27.70;65.20
12223;DHT22;6174;49.058;8.524;2023-06-10T12:41:54;27.70;63.10
12223;DHT22;6174;49.058;8.524;2023-06-10T12:44:29;27.60;63.30
12223;DHT22;6174;49.058;8.524;2023-06-10T12:46:56;27.70;63.10
12223;DHT22;6174;49.058;8.524;2023-06-10T12:49:23;27.80;63.00
12223;DHT22;6174;49.058;8.524;2023-06-10T12:51:50;27.80;63.40
12223;DHT22;6174;49.058;8.524;2023-06-10T12:54:17;27.80;65.90
12223;DHT22;6174;49.058;8.524;2023-06-10T12:56:45;27.90;64.40
12223;DHT22;6174;49.058;8.524;2023-06-10T12:59:12;27.90;63.50
12223;DHT22;6174;49.058;8.524;2023-06-10T13:01:40;28.00;63.00
12223;DHT22;6174;49.058;8.524;2023-06-10T13:04:06;27.80;62.70
12223;DHT22;6174;49.058;8.524;2023-06-10T13:06:33;27.60;61.50
12223;DHT22;6174;49.058;8.524;2023-06-10T13:09:03;27.60;60.70
12223;DHT22;6174;49.058;8.524;2023-06-10T13:11:31;27.60;65.50
12223;DHT22;6174;49.058;8.524;2023-06-10T13:13:59;27.70;64.80
12223;DHT22;6174;49.058;8.524;2023-06-10T13:16:26;27.70;66.70
12223;DHT22;6174;49.058;8.524;2023-06-10T13:18:53;27.80;66.90
12223;DHT22;6174;49.058;8.524;2023-06-10T13:21:20;27.80;64.00
12223;DHT22;6174;49.058;8.524;2023-06-10T13:23:47;27.70;62.60
12223;DHT22;6174;49.058;8.524;2023-06-10T13:26:14;27.60;62.60
12223;DHT22;6174;49.058;8.524;2023-06-10T13:28:41;27.60;63.60
12223;DHT22;6174;49.058;8.524;2023-06-10T13:31:10;27.60;64.00
12223;DHT22;6174;49.058;8.524;2023-06-10T13:33:36;27.70;62.30
12223;DHT22;6174;49.058;8.524;2023-06-10T13:36:04;27.80;63.50
12223;DHT22;6174;49.058;8.524;2023-06-10T13:38:31;27.80;62.20
12223;DHT22;6174;49.058;8.524;2023-06-10T13:40:57;27.90;63.90
12223;DHT22;6174;49.058;8.524;2023-06-10T13:43:24;27.80;66.10
12223;DHT22;6174;49.058;8.524;2023-06-10T13:45:51;27.70;65.10
12223;DHT22;6174;49.058;8.524;2023-06-10T13:48:19;27.70;64.40
12223;DHT22;6174;49.058;8.524;2023-06-10T13:50:46;27.70;60.40
12223;DHT22;6174;49.058;8.524;2023-06-10T13:53:13;27.70;60.40
12223;DHT22;6174;49.058;8.524;2023-06-10T13:55:40;27.80;62.00
12223;DHT22;6174;49.058;8.524;2023-06-10T13:58:07;27.80;62.10
12223;DHT22;6174;49.058;8.524;2023-06-10T14:00:34;27.80;61.10
12223;DHT22;6174;49.058;8.524;2023-06-10T14:03:00;27.90;61.80
12223;DHT22;6174;49.058;8.524;2023-06-10T14:05:29;28.00;63.20
12223;DHT22;6174;49.058;8.524;2023-06-10T14:07:57;28.10;64.40
12223;DHT22;6174;49.058;8.524;2023-06-10T14:10:23;28.10;64.70
12223;DHT22;6174;49.058;8.524;2023-06-10T14:12:50;28.10;64.70
12223;DHT22;6174;49.058;8.524;2023-06-10T14:15:17;28.00;62.10
12223;DHT22;6174;49.058;8.524;2023-06-10T14:17:44;28.00;63.10
12223;DHT22;6174;49.058;8.524;2023-06-10T14:20:11;27.90;62.40
12223;DHT22;6174;49.058;8.524;2023-06-10T14:22:40;28.00;65.20
12223;DHT22;6174;49.058;8.524;2023-06-10T14:25:07;28.20;63.40
12223;DHT22;6174;49.058;8.524;2023-06-10T14:27:34;28.20;63.20
12223;DHT22;6174;49.058;8.524;2023-06-10T14:30:01;28.20;62.60
12223;DHT22;6174;49.058;8.524;2023-06-10T14:32:28;28.20;61.30
12223;DHT22;6174;49.058;8.524;2023-06-10T14:34:55;28.10;58.40
12223;DHT22;6174;49.058;8.524;2023-06-10T14:37:21;28.10;60.50
12223;DHT22;6174;49.058;8.524;2023-06-10T14:39:50;28.10;60.80
12223;DHT22;6174;49.058;8.524;2023-06-10T14:42:16;28.10;62.10
12223;DHT22;6174;49.058;8.524;2023-06-10T14:44:43;28.00;59.40
12223;DHT22;6174;49.058;8.524;2023-06-10T14:47:10;27.90;59.40
12223;DHT22;6174;49.058;8.524;2023-06-10T14:49:37;27.90;61.80
12223;DHT22;6174;49.058;8.524;2023-06-10T14:52:04;27.90;59.70
12223;DHT22;6174;49.058;8.524;2023-06-10T14:54:30;27.90;60.00
12223;DHT22;6174;49.058;8.524;2023-06-10T14:56:59;27.90;61.10
12223;DHT22;6174;49.058;8.524;2023-06-10T14:59:25;27.90;59.80
12223;DHT22;6174;49.058;8.524;2023-06-10T15:01:52;27.80;61.00
12223;DHT22;6174;49.058;8.524;2023-06-10T15:04:19;27.80;63.20
12223;DHT22;6174;49.058;8.524;2023-06-10T15:06:46;27.80;61.30
12223;DHT22;6174;49.058;8.524;2023-06-10T15:09:14;27.80;60.60
12223;DHT22;6174;49.058;8.524;2023-06-10T15:11:41;27.90;62.20
12223;DHT22;6174;49.058;8.524;2023-06-10T15:14:09;27.90;60.10
12223;DHT22;6174;49.058;8.524;2023-06-10T15:16:36;27.80;61.40
12223;DHT22;6174;49.058;8.524;2023-06-10T15:19:02;27.90;60.80
12223;DHT22;6174;49.058;8.524;2023-06-10T15:21:32;27.90;60.40
12223;DHT22;6174;49.058;8.524;2023-06-10T15:23:58;27.90;61.20
12223;DHT22;6174;49.058;8.524;2023-06-10T15:26:25;27.90;61.30
12223;DHT22;6174;49.058;8.524;2023-06-10T15:28:52;27.90;60.80
12223;DHT22;6174;49.058;8.524;2023-06-10T15:31:20;27.80;60.70
12223;DHT22;6174;49.058;8.524;2023-06-10T15:33:47;27.80;61.50
12223;DHT22;6174;49.058;8.524;2023-06-10T15:36:13;27.80;62.10
12223;DHT22;6174;49.058;8.524;2023-06-10T15:38:40;27.70;59.50
12223;DHT22;6174;49.058;8.524;2023-06-10T15:41:07;27.80;60.40
12223;DHT22;6174;49.058;8.524;2023-06-10T15:43:34;27.80;60.10
12223;DHT22;6174;49.058;8.524;2023-06-10T15:46:01;27.80;58.70
12223;DHT22;6174;49.058;8.524;2023-06-10T15:48:29;27.80;59.60
12223;DHT22;6174;49.058;8.524;2023-06-10T15:50:55;27.70;60.00
12223;DHT22;6174;49.058;8.524;2023-06-10T15:53:22;27.70;58.90
12223;DHT22;6174;49.058;8.524;2023-06-10T15:55:49;27.70;59.30
12223;DHT22;6174;49.058;8.524;2023-06-10T15:58:15;27.60;60.00
12223;DHT22;6174;49.058;8.524;2023-06-10T16:00:42;27.70;60.10
12223;DHT22;6174;49.058;8.524;2023-06-10T16:03:09;27.60;60.40
12223;DHT22;6174;49.058;8.524;2023-06-10T16:05:37;27.60;61.30
12223;DHT22;6174;49.058;8.524;2023-06-10T16:08:04;27.60;61.20
12223;DHT22;6174;49.058;8.524;2023-06-10T16:10:31;27.80;62.00
12223;DHT22;6174;49.058;8.524;2023-06-10T16:12:57;27.70;60.30
12223;DHT22;6174;49.058;8.524;2023-06-10T16:15:24;27.70;59.20
12223;DHT22;6174;49.058;8.524;2023-06-10T16:17:51;27.70;59.00
12223;DHT22;6174;49.058;8.524;2023-06-10T16:20:18;27.60;60.20
12223;DHT22;6174;49.058;8.524;2023-06-10T16:22:46;27.60;60.00
12223;DHT22;6174;49.058;8.524;2023-06-10T16:25:12;27.60;61.00
12223;DHT22;6174;49.058;8.524;2023-06-10T16:27:39;27.60;60.80
12223;DHT22;6174;49.058;8.524;2023-06-10T16:30:07;27.60;60.80
12223;DHT22;6174;49.058;8.524;2023-06-10T16:32:34;27.70;60.10
12223;DHT22;6174;49.058;8.524;2023-06-10T16:35:00;27.70;60.60
12223;DHT22;6174;49.058;8.524;2023-06-10T16:37:27;27.70;60.80
12223;DHT22;6174;49.058;8.524;2023-06-10T16:39:55;27.70;59.50
12223;DHT22;6174;49.058;8.524;2023-06-10T16:42:22;27.60;58.90
12223;DHT22;6174;49.058;8.524;2023-06-10T16:44:49;27.60;59.20
12223;DHT22;6174;49.058;8.524;2023-06-10T16:47:16;27.60;60.20
12223;DHT22;6174;49.058;8.524;2023-06-10T16:49:42;27.60;59.50
12223;DHT22;6174;49.058;8.524;2023-06-10T16:52:09;27.60;60.20
12223;DHT22;6174;49.058;8.524;2023-06-10T16:54:36;27.60;59.80
12223;DHT22;6174;49.058;8.524;2023-06-10T16:57:04;27.60;61.80
12223;DHT22;6174;49.058;8.524;2023-06-10T16:59:31;27.60;60.60
12223;DHT22;6174;49.058;8.524;2023-06-10T17:01:58;27.50;61.30
12223;DHT22;6174;49.058;8.524;2023-06-10T17:04:25;27.50;61.70
12223;DHT22;6174;49.058;8.524;2023-06-10T17:06:52;27.50;62.00
12223;DHT22;6174;49.058;8.524;2023-06-10T17:09:19;27.50;60.50
12223;DHT22;6174;49.058;8.524;2023-06-10T17:11:46;27.50;60.20
12223;DHT22;6174;49.058;8.524;2023-06-10T17:14:14;27.60;60.20
12223;DHT22;6174;49.058;8.524;2023-06-10T17:16:40;27.80;59.20
12223;DHT22;6174;49.058;8.524;2023-06-10T17:19:07;27.80;59.30
12223;DHT22;6174;49.058;8.524;2023-06-10T17:21:34;27.80;60.00
12223;DHT22;6174;49.058;8.524;2023-06-10T17:24:02;27.80;60.10
12223;DHT22;6174;49.058;8.524;2023-06-10T17:26:29;27.80;61.00
12223;DHT22;6174;49.058;8.524;2023-06-10T17:28:55;27.80;60.70
12223;DHT22;6174;49.058;8.524;2023-06-10T17:31:23;27.70;59.40
12223;DHT22;6174;49.058;8.524;2023-06-10T17:33:50;27.70;60.10
12223;DHT22;6174;49.058;8.524;2023-06-10T17:36:17;27.60;60.20
12223;DHT22;6174;49.058;8.524;2023-06-10T17:38:44;27.60;60.50
12223;DHT22;6174;49.058;8.524;2023-06-10T17:41:11;27.50;60.20
12223;DHT22;6174;49.058;8.524;2023-06-10T17:43:38;27.50;61.10
12223;DHT22;6174;49.058;8.524;2023-06-10T17:46:04;27.50;60.20
12223;DHT22;6174;49.058;8.524;2023-06-10T17:48:32;27.50;60.50
12223;DHT22;6174;49.058;8.524;2023-06-10T17:50:59;27.50;60.90
12223;DHT22;6174;49.058;8.524;2023-06-10T17:53:26;27.50;61.60
12223;DHT22;6174;49.058;8.524;2023-06-10T17:55:52;27.50;61.40
12223;DHT22;6174;49.058;8.524;2023-06-10T17:58:19;27.50;61.40
12223;DHT22;6174;49.058;8.524;2023-06-10T18:00:46;27.50;62.30
12223;DHT22;6174;49.058;8.524;2023-06-10T18:03:13;27.50;61.60
12223;DHT22;6174;49.058;8.524;2023-06-10T18:05:43;27.60;62.60
12223;DHT22;6174;49.058;8.524;2023-06-10T18:08:10;27.60;61.30
12223;DHT22;6174;49.058;8.524;2023-06-10T18:10:37;27.60;62.30
12223;DHT22;6174;49.058;8.524;2023-06-10T18:13:04;27.60;62.20
12223;DHT22;6174;49.058;8.524;2023-06-10T18:15:30;27.50;62.10
12223;DHT22;6174;49.058;8.524;2023-06-10T18:17:57;27.50;62.30
12223;DHT22;6174;49.058;8.524;2023-06-10T18:20:24;27.50;62.50
12223;DHT22;6174;49.058;8.524;2023-06-10T18:22:52;27.40;62.90
12223;DHT22;6174;49.058;8.524;2023-06-10T18:25:18;27.30;63.50
12223;DHT22;6174;49.058;8.524;2023-06-10T18:27:45;27.30;64.20
12223;DHT22;6174;49.058;8.524;2023-06-10T18:30:12;27.10;64.00
12223;DHT22;6174;49.058;8.524;2023-06-10T18:32:39;27.10;65.20
12223;DHT22;6174;49.058;8.524;2023-06-10T18:35:06;27.00;65.30
12223;DHT22;6174;49.058;8.524;2023-06-10T18:37:33;27.00;64.80
12223;DHT22;6174;49.058;8.524;2023-06-10T18:40:01;26.90;64.70
12223;DHT22;6174;49.058;8.524;2023-06-10T18:42:29;26.90;65.70
12223;DHT22;6174;49.058;8.524;2023-06-10T18:44:56;26.80;65.90
12223;DHT22;6174;49.058;8.524;2023-06-10T18:47:22;26.70;65.60
12223;DHT22;6174;49.058;8.524;2023-06-10T18:49:49;26.60;65.80
12223;DHT22;6174;49.058;8.524;2023-06-10T18:52:16;26.60;66.70
12223;DHT22;6174;49.058;8.524;2023-06-10T18:54:42;26.40;67.10
12223;DHT22;6174;49.058;8.524;2023-06-10T18:57:11;26.30;67.70
12223;DHT22;6174;49.058;8.524;2023-06-10T18:59:38;26.20;68.40
12223;DHT22;6174;49.058;8.524;2023-06-10T19:02:05;26.20;69.30
12223;DHT22;6174;49.058;8.524;2023-06-10T19:04:32;26.00;69.60
12223;DHT22;6174;49.058;8.524;2023-06-10T19:06:59;25.90;70.40
12223;DHT22;6174;49.058;8.524;2023-06-10T19:09:26;25.70;70.80
12223;DHT22;6174;49.058;8.524;2023-06-10T19:11:52;25.60;70.40
12223;DHT22;6174;49.058;8.524;2023-06-10T19:14:20;25.60;71.10
12223;DHT22;6174;49.058;8.524;2023-06-10T19:16:47;25.50;71.30
12223;DHT22;6174;49.058;8.524;2023-06-10T19:19:14;25.40;71.70
12223;DHT22;6174;49.058;8.524;2023-06-10T19:21:41;25.30;72.30
12223;DHT22;6174;49.058;8.524;2023-06-10T19:24:07;25.20;72.10
12223;DHT22;6174;49.058;8.524;2023-06-10T19:26:35;25.10;73.10
12223;DHT22;6174;49.058;8.524;2023-06-10T19:29:02;25.00;72.60
12223;DHT22;6174;49.058;8.524;2023-06-10T19:31:30;25.00;72.60
12223;DHT22;6174;49.058;8.524;2023-06-10T19:33:56;25.00;72.40
12223;DHT22;6174;49.058;8.524;2023-06-10T19:36:23;25.00;73.10
12223;DHT22;6174;49.058;8.524;2023-06-10T19:38:50;25.00;73.40
12223;DHT22;6174;49.058;8.524;2023-06-10T19:41:17;24.90;74.20
12223;DHT22;6174;49.058;8.524;2023-06-10T19:43:45;24.80;74.10
12223;DHT22;6174;49.058;8.524;2023-06-10T19:46:13;24.80;73.90
12223;DHT22;6174;49.058;8.524;2023-06-10T19:48:44;24.80;74.00
12223;DHT22;6174;49.058;8.524;2023-06-10T19:51:11;24.80;74.60
12223;DHT22;6174;49.058;8.524;2023-06-10T19:53:38;24.80;74.50
12223;DHT22;6174;49.058;8.524;2023-06-10T19:56:05;24.80;74.70
12223;DHT22;6174;49.058;8.524;2023-06-10T19:58:32;24.70;75.30
12223;DHT22;6174;49.058;8.524;2023-06-10T20:00:59;24.80;75.10
12223;DHT22;6174;49.058;8.524;2023-06-10T20:03:26;24.70;75.80
12223;DHT22;6174;49.058;8.524;2023-06-10T20:05:54;24.60;75.70
12223;DHT22;6174;49.058;8.524;2023-06-10T20:08:22;24.60;76.00
12223;DHT22;6174;49.058;8.524;2023-06-10T20:10:48;24.60;77.00
12223;DHT22;6174;49.058;8.524;2023-06-10T20:13:15;24.50;76.50
12223;DHT22;6174;49.058;8.524;2023-06-10T20:15:42;24.60;77.20
12223;DHT22;6174;49.058;8.524;2023-06-10T20:18:09;24.40;77.00
12223;DHT22;6174;49.058;8.524;2023-06-10T20:20:36;24.40;77.30
12223;DHT22;6174;49.058;8.524;2023-06-10T20:23:04;24.10;77.30
12223;DHT22;6174;49.058;8.524;2023-06-10T20:25:31;24.30;77.70
12223;DHT22;6174;49.058;8.524;2023-06-10T20:27:59;24.30;77.50
12223;DHT22;6174;49.058;8.524;2023-06-10T20:30:26;24.30;77.80
12223;DHT22;6174;49.058;8.524;2023-06-10T20:32:53;24.20;77.90
12223;DHT22;6174;49.058;8.524;2023-06-10T20:35:20;24.20;77.80
12223;DHT22;6174;49.058;8.524;2023-06-10T20:37:47;24.20;78.60
12223;DHT22;6174;49.058;8.524;2023-06-10T20:40:15;24.20;78.80
12223;DHT22;6174;49.058;8.524;2023-06-10T20:42:42;24.10;78.80
12223;DHT22;6174;49.058;8.524;2023-06-10T20:45:10;24.10;79.20
12223;DHT22;6174;49.058;8.524;2023-06-10T20:47:37;24.00;79.00
12223;DHT22;6174;49.058;8.524;2023-06-10T20:50:04;24.00;79.40
12223;DHT22;6174;49.058;8.524;2023-06-10T20:52:31;24.00;80.40
12223;DHT22;6174;49.058;8.524;2023-06-10T20:54:58;23.90;79.90
12223;DHT22;6174;49.058;8.524;2023-06-10T20:57:26;23.90;80.30
12223;DHT22;6174;49.058;8.524;2023-06-10T20:59:53;23.80;80.50
12223;DHT22;6174;49.058;8.524;2023-06-10T21:02:19;23.80;81.10
12223;DHT22;6174;49.058;8.524;2023-06-10T21:04:46;23.80;81.30
12223;DHT22;6174;49.058;8.524;2023-06-10T21:07:13;23.70;81.20
12223;DHT22;6174;49.058;8.524;2023-06-10T21:09:40;23.60;81.70
12223;DHT22;6174;49.058;8.524;2023-06-10T21:12:07;23.60;82.50
12223;DHT22;6174;49.058;8.524;2023-06-10T21:14:36;23.50;82.50
12223;DHT22;6174;49.058;8.524;2023-06-10T21:17:03;23.40;82.80
12223;DHT22;6174;49.058;8.524;2023-06-10T21:19:29;23.40;82.80
12223;DHT22;6174;49.058;8.524;2023-06-10T21:21:56;23.30;83.40
12223;DHT22;6174;49.058;8.524;2023-06-10T21:24:23;23.30;82.90
12223;DHT22;6174;49.058;8.524;2023-06-10T21:26:50;23.20;82.60
12223;DHT22;6174;49.058;8.524;2023-06-10T21:29:17;23.20;82.20
12223;DHT22;6174;49.058;8.524;2023-06-10T21:31:45;23.30;81.90
12223;DHT22;6174;49.058;8.524;2023-06-10T21:34:12;23.30;82.10
12223;DHT22;6174;49.058;8.524;2023-06-10T21:36:39;23.30;82.10
12223;DHT22;6174;49.058;8.524;2023-06-10T21:39:06;23.20;82.20
12223;DHT22;6174;49.058;8.524;2023-06-10T21:41:33;23.20;81.20
12223;DHT22;6174;49.058;8.524;2023-06-10T21:43:59;23.30;82.20
12223;DHT22;6174;49.058;8.524;2023-06-10T21:46:26;23.30;81.30
12223;DHT22;6174;49.058;8.524;2023-06-10T21:48:55;23.30;82.30
12223;DHT22;6174;49.058;8.524;2023-06-10T21:51:22;23.20;81.70